createdAt,value
2022-09-06T00:01:14.060Z,99392.41
2022-09-06T00:03:43.127Z,99390.78
2022-09-06T00:06:15.397Z,99397.75
2022-09-06T00:08:46.085Z,99394.31
2022-09-06T00:11:15.807Z,99389.16
2022-09-06T00:13:46.560Z,99381.53
2022-09-06T00:16:18.153Z,99391.91
2022-09-06T00:18:47.416Z,99382.66
2022-09-06T00:21:19.746Z,99376.66
2022-09-06T00:23:48.639Z,99376.81
2022-09-06T00:26:17.608Z,99383.78
2022-09-06T00:28:47.764Z,99387.34
2022-09-06T00:31:19.706Z,99385.72
2022-09-06T00:33:48.690Z,99388.63
2022-09-06T00:36:18.006Z,99386.97
2022-09-06T00:38:47.015Z,99382.75
2022-09-06T00:41:17.475Z,99381.97
2022-09-06T00:43:47.806Z,99380.31
2022-09-06T00:46:19.823Z,99376.09
2022-09-06T00:48:50.984Z,99376.94
2022-09-06T00:51:20.830Z,99373.34
2022-09-06T00:53:50.832Z,99379.53
2022-09-06T00:56:19.853Z,99375.16
2022-09-06T00:58:51.070Z,99378.69
2022-09-06T01:01:19.938Z,99369.16
2022-09-06T01:03:49.210Z,99376.09
2022-09-06T01:06:27.166Z,99375.16
2022-09-06T01:09:06.607Z,99372.72
2022-09-06T01:11:55.875Z,99377.22
2022-09-06T01:14:42.208Z,99378.19
2022-09-06T01:17:30.118Z,99390.16
2022-09-06T01:20:46.703Z,99384.50
2022-09-06T01:24:20.848Z,99386.41
2022-09-06T01:27:30.586Z,99391.72
2022-09-06T01:30:05.668Z,99392.69
2022-09-06T01:32:42.546Z,99400.34
2022-09-06T01:35:20.045Z,99400.34
2022-09-06T01:37:49.352Z,99397.75
2022-09-06T01:40:18.291Z,99395.16
2022-09-06T01:42:49.863Z,99412.44
2022-09-06T01:45:24.957Z,99420.22
2022-09-06T01:48:04.398Z,99491.06
2022-09-06T01:50:57.930Z,99522.25
2022-09-06T01:54:02.511Z,99503.19
2022-09-06T01:56:46.872Z,99512.59
2022-09-06T01:59:43.170Z,99536.28
2022-09-06T02:02:21.129Z,99535.00
2022-09-06T02:04:54.280Z,99517.38
2022-09-06T02:07:27.072Z,99530.03
2022-09-06T02:10:01.822Z,99527.97
2022-09-06T02:12:33.782Z,99538.03
2022-09-06T02:15:06.957Z,99535.31
2022-09-06T02:17:44.625Z,99529.81
2022-09-06T02:20:18.058Z,99521.91
2022-09-06T02:22:49.429Z,99514.78
2022-09-06T02:25:26.311Z,99509.31
2022-09-06T02:27:55.682Z,99490.09
2022-09-06T02:30:24.745Z,99462.06
2022-09-06T02:33:00.091Z,99466.16
2022-09-06T02:35:29.007Z,99452.25
2022-09-06T02:37:57.752Z,99445.13
2022-09-06T02:40:26.669Z,99451.66
2022-09-06T02:42:55.381Z,99457.47
2022-09-06T02:45:24.107Z,99470.13
2022-09-06T02:47:54.199Z,99469.84
2022-09-06T02:50:22.866Z,99481.63
2022-09-06T02:53:06.450Z,99495.44
2022-09-06T02:55:35.189Z,99497.88
2022-09-06T02:58:04.229Z,99527.03
2022-09-06T03:00:33.067Z,99529.63
2022-09-06T03:03:03.356Z,99519.00
2022-09-06T03:05:32.819Z,99503.44
2022-09-06T03:08:01.602Z,99490.47
2022-09-06T03:10:30.394Z,99485.31
2022-09-06T03:12:59.101Z,99488.84
2022-09-06T03:15:27.959Z,99484.47
2022-09-06T03:17:59.822Z,99469.75
2022-09-06T03:20:32.832Z,99467.97
2022-09-06T03:23:05.507Z,99480.91
2022-09-06T03:25:34.254Z,99509.25
2022-09-06T03:28:03.693Z,99504.09
2022-09-06T03:30:32.435Z,99482.56
2022-09-06T03:33:02.923Z,99460.88
2022-09-06T03:35:33.271Z,99441.09
2022-09-06T03:38:01.912Z,99430.06
2022-09-06T03:40:30.754Z,99430.06
2022-09-06T03:42:59.470Z,99413.88
2022-09-06T03:45:28.119Z,99396.69
2022-09-06T03:47:56.849Z,99384.66
2022-09-06T03:50:25.568Z,99372.69
2022-09-06T03:52:58.726Z,99371.22
2022-09-06T03:55:27.498Z,99367.94
2022-09-06T03:57:56.170Z,99375.72
2022-09-06T04:00:25.104Z,99360.34
2022-09-06T04:02:53.801Z,99356.63
2022-09-06T04:05:22.524Z,99342.88
2022-09-06T04:07:51.283Z,99355.84
2022-09-06T04:10:21.393Z,99361.00
2022-09-06T04:12:50.112Z,99360.34
2022-09-06T04:15:18.905Z,99377.69
2022-09-06T04:17:48.390Z,99386.25
2022-09-06T04:20:18.321Z,99395.66
2022-09-06T04:22:47.027Z,99395.66
2022-09-06T04:25:15.789Z,99385.28
2022-09-06T04:27:45.846Z,99394.81
2022-09-06T04:30:14.753Z,99392.22
2022-09-06T04:32:43.503Z,99387.22
2022-09-06T04:35:12.212Z,99389.81
2022-09-06T04:37:40.931Z,99396.78
2022-09-06T04:40:10.824Z,99390.13
2022-09-06T04:42:39.603Z,99386.88
2022-09-06T04:45:12.079Z,99380.06
2022-09-06T04:47:40.792Z,99382.00
2022-09-06T04:50:10.457Z,99380.34
2022-09-06T04:52:40.536Z,99382.16
2022-09-06T04:55:10.418Z,99383.09
2022-09-06T04:57:43.753Z,99397.84
2022-09-06T05:00:16.665Z,99392.00
2022-09-06T05:02:45.663Z,99385.22
2022-09-06T05:05:14.390Z,99381.94
2022-09-06T05:07:43.094Z,99382.09
2022-09-06T05:10:11.834Z,99385.66
2022-09-06T05:12:44.149Z,99384.84
2022-09-06T05:15:13.399Z,99385.00
2022-09-06T05:17:43.587Z,99379.00
2022-09-06T05:20:13.439Z,99394.53
2022-09-06T05:22:42.254Z,99390.34
2022-09-06T05:25:12.020Z,99399.72
2022-09-06T05:27:40.695Z,99399.06
2022-09-06T05:30:11.442Z,99407.63
2022-09-06T05:32:40.274Z,99408.75
2022-09-06T05:35:10.926Z,99414.91
2022-09-06T05:37:39.650Z,99416.69
2022-09-06T05:40:09.838Z,99416.69
2022-09-06T05:42:38.674Z,99415.88
2022-09-06T05:45:08.669Z,99415.03
2022-09-06T05:47:38.436Z,99420.09
2022-09-06T05:50:09.724Z,99431.09
2022-09-06T05:52:39.735Z,99435.31
2022-09-06T05:55:09.639Z,99438.72
2022-09-06T05:57:38.975Z,99435.31
2022-09-06T06:00:12.095Z,99443.09
2022-09-06T06:02:41.208Z,99445.69
2022-09-06T06:05:11.520Z,99448.91
2022-09-06T06:07:40.315Z,99442.13
2022-09-06T06:10:09.879Z,99450.56
2022-09-06T06:12:38.664Z,99449.59
2022-09-06T06:15:08.655Z,99449.44
2022-09-06T06:17:37.366Z,99452.84
2022-09-06T06:20:07.030Z,99463.88
2022-09-06T06:22:37.148Z,99458.53
2022-09-06T06:25:06.698Z,99460.97
2022-09-06T06:27:37.171Z,99460.00
2022-09-06T06:30:06.975Z,99457.41
2022-09-06T06:32:35.676Z,99454.66
2022-09-06T06:35:04.402Z,99465.72
2022-09-06T06:37:36.133Z,99453.56
2022-09-06T06:40:06.144Z,99461.19
2022-09-06T06:42:34.893Z,99468.78
2022-09-06T06:45:03.605Z,99464.44
2022-09-06T06:47:32.288Z,99466.72
2022-09-06T06:50:01.028Z,99462.19
2022-09-06T06:52:29.822Z,99463.81
2022-09-06T06:54:59.855Z,99464.66
2022-09-06T06:57:28.543Z,99466.94
2022-09-06T06:59:57.251Z,99471.94
2022-09-06T07:02:26.124Z,99472.75
2022-09-06T07:04:54.846Z,99475.22
2022-09-06T07:07:30.911Z,99477.53
2022-09-06T07:12:50.787Z,99479.66
2022-09-06T07:15:19.492Z,99487.09
2022-09-06T07:17:48.195Z,99479.03
2022-09-06T07:20:17.059Z,99476.94
2022-09-06T07:22:45.859Z,99477.47
2022-09-06T07:25:20.521Z,99472.13
2022-09-06T07:27:50.379Z,99473.75
2022-09-06T07:30:20.836Z,99475.38
2022-09-06T07:32:49.608Z,99482.84
2022-09-06T07:35:20.436Z,99483.66
2022-09-06T07:37:56.788Z,99485.28
2022-09-06T07:40:27.904Z,99486.91
2022-09-06T07:42:58.702Z,99489.97
2022-09-06T07:45:27.673Z,99481.09
2022-09-06T07:47:59.055Z,99485.00
2022-09-06T07:53:24.569Z,99485.03
2022-09-06T07:56:00.445Z,99475.84
2022-09-06T07:58:30.211Z,99481.50
2022-09-06T08:01:18.810Z,99477.00
2022-09-06T08:03:49.077Z,99477.63
2022-09-06T08:06:17.907Z,99475.72
2022-09-06T08:09:01.907Z,99471.16
2022-09-06T08:11:33.604Z,99477.97
2022-09-06T08:14:04.972Z,99476.06
2022-09-06T08:16:35.721Z,99474.09
2022-09-06T08:19:08.795Z,99475.78
2022-09-06T08:21:37.823Z,99475.59
2022-09-06T08:24:09.664Z,99479.66
2022-09-06T08:26:42.510Z,99475.28
2022-09-06T08:29:12.205Z,99481.16
2022-09-06T08:31:43.593Z,99475.97
2022-09-06T08:34:14.253Z,99478.38
2022-09-06T08:36:43.654Z,99478.38
2022-09-06T08:39:13.021Z,99485.22
2022-09-06T08:41:51.323Z,99479.19
2022-09-06T08:47:14.863Z,99479.19
2022-09-06T08:49:46.356Z,99485.03
2022-09-06T08:53:06.098Z,99483.41
2022-09-06T08:55:40.261Z,99477.44
2022-09-06T08:58:27.655Z,99477.09
2022-09-06T09:01:02.311Z,99468.34
2022-09-06T09:03:36.612Z,99474.03
2022-09-06T09:06:07.424Z,99465.94
2022-09-06T09:08:48.034Z,99451.97
2022-09-06T09:11:20.552Z,99455.41
2022-09-06T09:13:59.263Z,99452.63
2022-09-06T09:16:28.264Z,99455.06
2022-09-06T09:18:59.953Z,99449.72
2022-09-06T09:21:31.032Z,99452.97
2022-09-06T09:24:05.333Z,99447.63
2022-09-06T09:26:45.978Z,99440.47
2022-09-06T09:29:17.230Z,99435.16
2022-09-06T09:31:53.420Z,99437.59
2022-09-06T09:34:33.740Z,99436.59
2022-09-06T09:40:03.276Z,99436.59
2022-09-06T09:42:37.271Z,99434.66
2022-09-06T09:45:25.351Z,99428.19
2022-09-06T09:47:54.023Z,99424.28
2022-09-06T09:50:29.576Z,99423.94
2022-09-06T09:53:08.397Z,99422.03
2022-09-06T09:55:37.434Z,99423.31
2022-09-06T09:58:07.773Z,99419.09
2022-09-06T10:00:40.712Z,99411.16
2022-09-06T10:03:14.571Z,99402.72
2022-09-06T10:05:44.334Z,99405.78
2022-09-06T10:08:14.346Z,99409.13
2022-09-06T10:10:48.442Z,99405.31
2022-09-06T10:13:22.358Z,99401.47
2022-09-06T10:15:55.253Z,99406.06
2022-09-06T10:18:32.947Z,99396.13
2022-09-06T10:21:03.983Z,99399.97
2022-09-06T10:26:45.467Z,99401.97
2022-09-06T10:29:15.704Z,99393.03
2022-09-06T10:32:09.972Z,99401.50
2022-09-06T10:35:07.802Z,99400.22
2022-09-06T10:38:05.041Z,99398.88
2022-09-06T10:40:38.889Z,99393.66
2022-09-06T10:43:14.639Z,99396.25
2022-09-06T10:46:00.848Z,99392.41
2022-09-06T10:48:33.978Z,99384.66
2022-09-06T10:51:12.706Z,99387.53
2022-09-06T10:53:48.492Z,99387.63
2022-09-06T10:56:23.738Z,99387.25
2022-09-06T11:02:01.978Z,99383.63
2022-09-06T11:07:31.082Z,99376.69
2022-09-06T11:10:07.889Z,99376.72
2022-09-06T11:12:41.409Z,99372.38
2022-09-06T11:15:14.065Z,99368.69
2022-09-06T11:17:48.329Z,99368.75
2022-09-06T11:20:28.594Z,99366.03
2022-09-06T11:23:42.131Z,99368.22
2022-09-06T11:26:34.628Z,99362.09
2022-09-06T11:29:08.241Z,99361.47
2022-09-06T11:34:45.804Z,99359.56
2022-09-06T11:37:28.534Z,99356.31
2022-09-06T11:43:17.655Z,99363.78
2022-09-06T11:45:53.626Z,99350.94
2022-09-06T11:48:35.758Z,99352.09
2022-09-06T11:51:10.945Z,99353.13
2022-09-06T11:54:13.132Z,99348.34
2022-09-06T11:56:51.026Z,99352.59
2022-09-06T11:59:34.397Z,99357.00
2022-09-06T12:02:05.970Z,99346.59
2022-09-06T12:05:18.004Z,99348.53
2022-09-06T12:08:35.368Z,99345.31
2022-09-06T12:11:29.091Z,99339.44
2022-09-06T12:14:04.180Z,99332.78
2022-09-06T12:17:28.590Z,99337.56
2022-09-06T12:20:09.583Z,99331.53
2022-09-06T12:22:55.396Z,99333.31
2022-09-06T12:25:59.474Z,99327.47
2022-09-06T12:28:49.145Z,99315.28
2022-09-06T12:31:40.059Z,99318.88
2022-09-06T12:34:14.810Z,99325.53
2022-09-06T12:36:59.576Z,99322.91
2022-09-06T12:39:29.090Z,99323.72
2022-09-06T12:42:01.882Z,99321.94
2022-09-06T12:44:37.515Z,99317.53
2022-09-06T12:47:15.038Z,99315.13
2022-09-06T12:49:43.718Z,99308.28
2022-09-06T12:52:16.290Z,99304.06
2022-09-06T12:54:50.594Z,99300.66
2022-09-06T12:57:22.075Z,99300.47
2022-09-06T12:59:55.403Z,99299.31
2022-09-06T13:02:32.914Z,99297.19
2022-09-06T13:05:06.559Z,99292.63
2022-09-06T13:07:41.921Z,99291.66
2022-09-06T13:10:14.888Z,99283.84
2022-09-06T13:12:49.057Z,99284.03
2022-09-06T13:15:27.823Z,99279.00
2022-09-06T13:18:22.559Z,99283.38
2022-09-06T13:21:03.361Z,99283.38
2022-09-06T13:23:42.218Z,99279.59
2022-09-06T13:26:11.094Z,99280.88
2022-09-06T13:28:39.916Z,99283.94
2022-09-06T13:31:14.376Z,99276.16
2022-09-06T13:33:43.340Z,99270.13
2022-09-06T13:36:25.341Z,99269.31
2022-09-06T13:38:55.596Z,99267.69
2022-09-06T13:41:44.466Z,99265.09
2022-09-06T13:44:29.780Z,99266.88
2022-09-06T13:47:00.547Z,99264.13
2022-09-06T13:49:29.402Z,99256.31
2022-09-06T13:52:02.085Z,99260.53
2022-09-06T13:54:32.301Z,99268.53
2022-09-06T13:57:01.727Z,99258.91
2022-09-06T13:59:31.687Z,99261.50
2022-09-06T14:02:05.602Z,99260.53
2022-09-06T14:04:36.281Z,99263.31
2022-09-06T14:07:06.785Z,99261.50
2022-09-06T14:09:35.624Z,99266.53
2022-09-06T14:12:05.272Z,99254.81
2022-09-06T14:14:34.289Z,99262.31
2022-09-06T14:17:05.153Z,99265.88
2022-09-06T14:19:33.976Z,99255.47
2022-09-06T14:22:04.925Z,99255.47
2022-09-06T14:24:34.666Z,99251.25
2022-09-06T14:27:05.180Z,99256.44
2022-09-06T14:29:34.474Z,99246.41
2022-09-06T14:32:05.109Z,99246.22
2022-09-06T14:34:33.846Z,99238.75
2022-09-06T14:37:02.480Z,99227.50
2022-09-06T14:39:31.562Z,99229.31
2022-09-06T14:42:00.397Z,99223.47
2022-09-06T14:44:29.175Z,99226.88
2022-09-06T14:46:58.344Z,99222.66
2022-09-06T14:49:28.547Z,99226.25
2022-09-06T14:51:57.463Z,99232.41
2022-09-06T14:54:29.318Z,99230.81
2022-09-06T14:56:58.806Z,99215.53
2022-09-06T14:59:27.847Z,99214.75
2022-09-06T15:01:57.462Z,99218.31
2022-09-06T15:04:27.896Z,99208.09
2022-09-06T15:06:56.767Z,99208.94
2022-09-06T15:09:25.556Z,99205.50
2022-09-06T15:11:55.470Z,99208.94
2022-09-06T15:14:26.792Z,99204.69
2022-09-06T15:16:58.141Z,99210.09
2022-09-06T15:19:30.015Z,99200.66
2022-09-06T15:21:59.074Z,99207.81
2022-09-06T15:24:29.135Z,99213.00
2022-09-06T15:26:58.557Z,99208.81
2022-09-06T15:29:28.069Z,99208.97
2022-09-06T15:31:57.226Z,99195.34
2022-09-06T15:34:28.183Z,99191.94
2022-09-06T15:36:57.519Z,99187.72
2022-09-06T15:39:26.337Z,99195.34
2022-09-06T15:41:55.110Z,99195.53
2022-09-06T15:44:23.900Z,99192.09
2022-09-06T15:46:55.045Z,99185.28
2022-09-06T15:49:28.504Z,99190.50
2022-09-06T15:51:58.440Z,99184.47
2022-09-06T15:54:41.716Z,99181.88
2022-09-06T15:57:11.344Z,99179.44
2022-09-06T15:59:41.714Z,99185.47
2022-09-06T16:02:10.940Z,99185.47
2022-09-06T16:04:41.740Z,99179.44
2022-09-06T16:07:11.634Z,99180.41
2022-09-06T16:09:40.632Z,99177.81
2022-09-06T16:12:09.792Z,99174.41
2022-09-06T16:14:39.602Z,99167.59
2022-09-06T16:17:08.587Z,99171.03
2022-09-06T16:19:37.364Z,99174.78
2022-09-06T16:22:07.720Z,99174.78
2022-09-06T16:24:36.521Z,99173.16
2022-09-06T16:27:05.593Z,99164.38
2022-09-06T16:29:34.456Z,99164.38
2022-09-06T16:32:03.432Z,99166.97
2022-09-06T16:34:32.307Z,99174.78
2022-09-06T16:37:01.180Z,99165.34
2022-09-06T16:39:31.342Z,99167.94
2022-09-06T16:42:00.311Z,99169.56
2022-09-06T16:44:29.645Z,99174.78
2022-09-06T16:47:01.074Z,99176.41
2022-09-06T16:49:29.810Z,99184.81
2022-09-06T16:52:01.527Z,99179.44
2022-09-06T16:54:31.675Z,99183.50
2022-09-06T16:57:00.455Z,99189.50
2022-09-06T16:59:29.582Z,99181.69
2022-09-06T17:01:58.503Z,99179.09
2022-09-06T17:04:27.492Z,99184.13
2022-09-06T17:06:56.350Z,99186.75
2022-09-06T17:09:25.267Z,99197.94
2022-09-06T17:11:55.642Z,99195.34
2022-09-06T17:14:24.523Z,99192.91
2022-09-06T17:17:05.134Z,99186.09
2022-09-06T17:19:37.180Z,99175.88
2022-09-06T17:22:06.363Z,99177.66
2022-09-06T17:24:35.411Z,99169.22
2022-09-06T17:27:06.242Z,99175.41
2022-09-06T17:29:35.408Z,99175.56
2022-09-06T17:32:09.994Z,99183.56
2022-09-06T17:34:39.379Z,99193.31
2022-09-06T17:37:08.834Z,99194.31
2022-09-06T17:39:38.059Z,99198.69
2022-09-06T17:42:08.737Z,99193.66
2022-09-06T17:44:37.591Z,99188.47
2022-09-06T17:47:14.833Z,99187.84
2022-09-06T17:49:43.881Z,99179.41
2022-09-06T17:52:13.778Z,99184.78
2022-09-06T17:54:42.612Z,99180.56
2022-09-06T17:57:12.813Z,99180.72
2022-09-06T17:59:41.557Z,99173.28
2022-09-06T18:02:10.388Z,99167.25
2022-09-06T18:04:39.339Z,99169.25
2022-09-06T18:07:08.181Z,99172.03
2022-09-06T18:09:37.839Z,99168.78
2022-09-06T18:12:06.926Z,99168.78
2022-09-06T18:14:37.613Z,99166.34
2022-09-06T18:17:08.558Z,99166.53
2022-09-06T18:19:38.238Z,99170.28
2022-09-06T18:24:35.623Z,99180.38
2022-09-06T18:27:04.534Z,99193.50
2022-09-06T18:29:33.403Z,99198.88
2022-09-06T18:32:04.471Z,99196.66
2022-09-06T18:34:33.285Z,99190.00
2022-09-06T18:37:02.093Z,99183.34
2022-09-06T18:39:31.083Z,99191.50
2022-09-06T18:42:03.986Z,99201.41
2022-09-06T18:44:34.807Z,99199.34
2022-09-06T18:47:07.486Z,99205.69
2022-09-06T18:49:40.526Z,99201.63
2022-09-06T18:52:12.157Z,99195.97
2022-09-06T18:54:41.003Z,99192.75
2022-09-06T18:57:09.783Z,99197.28
2022-09-06T18:59:38.567Z,99192.25
2022-09-06T19:02:08.767Z,99193.22
2022-09-06T19:04:37.628Z,99202.16
2022-09-06T19:07:06.811Z,99200.41
2022-09-06T19:09:35.581Z,99206.91
2022-09-06T19:12:04.915Z,99205.28
2022-09-06T19:14:34.220Z,99208.06
2022-09-06T19:17:03.016Z,99204.81
2022-09-06T19:19:33.353Z,99194.75
2022-09-06T19:22:02.153Z,99193.97
2022-09-06T19:24:30.962Z,99192.34
2022-09-06T19:26:59.758Z,99190.88
2022-09-06T19:29:28.646Z,99189.09
2022-09-06T19:31:57.474Z,99192.69
2022-09-06T19:34:26.547Z,99190.25
2022-09-06T19:36:57.286Z,99193.00
2022-09-06T19:39:32.369Z,99194.97
2022-09-06T19:42:03.759Z,99178.91
2022-09-06T19:44:32.623Z,99189.28
2022-09-06T19:47:01.456Z,99183.47
2022-09-06T19:49:31.013Z,99174.06
2022-09-06T19:52:01.650Z,99167.25
2022-09-06T19:54:30.455Z,99163.81
2022-09-06T19:56:59.228Z,99166.59
2022-09-06T19:59:28.447Z,99163.16
2022-09-06T20:01:57.288Z,99155.53
2022-09-06T20:04:28.237Z,99148.72
2022-09-06T20:06:57.679Z,99151.50
2022-09-06T20:09:27.848Z,99149.06
2022-09-06T20:11:56.598Z,99146.66
2022-09-06T20:14:26.458Z,99139.66
2022-09-06T20:17:00.314Z,99139.03
2022-09-06T20:19:40.580Z,99129.00
2022-09-06T20:22:11.428Z,99129.00
2022-09-06T20:24:41.822Z,99135.16
2022-09-06T20:27:10.562Z,99136.94
2022-09-06T20:29:39.349Z,99132.56
2022-09-06T20:32:08.434Z,99123.16
2022-09-06T20:34:37.168Z,99131.91
2022-09-06T20:37:06.003Z,99129.31
2022-09-06T20:39:34.890Z,99111.31
2022-09-06T20:42:05.250Z,99126.09
2022-09-06T20:44:34.192Z,99132.44
2022-09-06T20:47:03.151Z,99130.78
2022-09-06T20:49:32.076Z,99133.91
2022-09-06T20:52:00.854Z,99130.66
2022-09-06T20:54:29.659Z,99137.81
2022-09-06T20:56:59.189Z,99136.38
2022-09-06T20:59:29.424Z,99134.91
2022-09-06T21:02:02.268Z,99149.03
2022-09-06T21:04:31.959Z,99144.00
2022-09-06T21:07:00.751Z,99136.41
2022-09-06T21:09:29.527Z,99139.16
2022-09-06T21:11:59.089Z,99139.28
2022-09-06T21:14:29.330Z,99146.28
2022-09-06T21:16:58.470Z,99136.06
2022-09-06T21:19:27.353Z,99130.88
2022-09-06T21:21:56.137Z,99132.69
2022-09-06T21:24:24.875Z,99124.06
2022-09-06T21:26:53.766Z,99128.47
2022-09-06T21:29:22.838Z,99129.44
2022-09-06T21:31:53.040Z,99129.44
2022-09-06T21:34:22.522Z,99126.03
2022-09-06T21:36:51.396Z,99122.63
2022-09-06T21:39:20.137Z,99130.56
2022-09-06T21:41:48.931Z,99130.75
2022-09-06T21:44:17.682Z,99122.34
2022-09-06T21:46:46.723Z,99123.28
2022-09-06T21:49:17.142Z,99121.84
2022-09-06T21:51:45.985Z,99111.63
2022-09-06T21:54:14.722Z,99116.16
2022-09-06T21:56:43.547Z,99127.38
2022-09-06T21:59:12.591Z,99129.13
2022-09-06T22:01:45.080Z,99128.50
2022-09-06T22:04:16.152Z,99126.09
2022-09-06T22:06:44.925Z,99127.84
2022-09-06T22:09:14.561Z,99130.63
2022-09-06T22:11:45.639Z,99129.81
2022-09-06T22:14:15.957Z,99126.53
2022-09-06T22:16:45.064Z,99124.91
2022-09-06T22:19:14.162Z,99116.50
2022-09-06T22:21:44.382Z,99113.25
2022-09-06T22:24:14.300Z,99111.66
2022-09-06T22:26:43.532Z,99111.78
2022-09-06T22:29:15.387Z,99116.19
2022-09-06T22:31:44.456Z,99112.78
2022-09-06T22:34:13.448Z,99111.94
2022-09-06T22:36:43.978Z,99102.56
2022-09-06T22:39:12.771Z,99104.34
2022-09-06T22:41:41.581Z,99105.16
2022-09-06T22:44:10.341Z,99100.94
2022-09-06T22:46:39.551Z,99105.47
2022-09-06T22:49:08.356Z,99104.84
2022-09-06T22:51:37.193Z,99099.00
2022-09-06T22:54:07.496Z,99091.22
2022-09-06T22:56:36.482Z,99085.41
2022-09-06T22:59:06.155Z,99080.22
2022-09-06T23:01:39.258Z,99071.00
2022-09-06T23:04:08.872Z,99080.53
2022-09-06T23:06:38.420Z,99089.31
2022-09-06T23:09:08.742Z,99088.66
2022-09-06T23:11:37.536Z,99087.84
2022-09-06T23:14:06.349Z,99079.25
2022-09-06T23:16:35.247Z,99066.44
2022-09-06T23:19:04.124Z,99070.84
2022-09-06T23:21:33.827Z,99071.00
2022-09-06T23:24:02.928Z,99067.59
2022-09-06T23:26:34.476Z,99072.78
2022-09-06T23:29:03.228Z,99062.41
2022-09-06T23:31:32.896Z,99060.81
2022-09-06T23:34:03.933Z,99054.78
2022-09-06T23:36:33.644Z,99048.81
2022-09-06T23:39:02.908Z,99066.97
2022-09-06T23:41:33.139Z,99066.31
2022-09-06T23:44:02.180Z,99067.91
2022-09-06T23:46:31.924Z,99070.50
2022-09-06T23:49:00.776Z,99062.91
2022-09-06T23:51:29.699Z,99067.28
2022-09-06T23:53:58.914Z,99069.06
2022-09-06T23:56:27.833Z,99062.09
2022-09-06T23:58:58.051Z,99067.28
